Time;durP1;ratioP1;P1;durP2;ratioP2;P2;SDS_P1;SDS_P2;PMS_P1;PMS_P2;Temp;Humidity;BMP_temperature;BMP_pressure;BME280_temperature;BME280_humidity;BME280_pressure;Samples;Min_cycle;Max_cycle;Signal;HPM_P1;HPM_P2
2023/01/26 00:00:52;;;;;;;38.90;21.50;;;6.80;46.10;;;;;;5032225;28;20182;-52
2023/01/26 00:03:18;;;;;;;42.88;23.42;;;6.70;46.10;;;;;;5032354;28;20177;-52
2023/01/26 00:05:44;;;;;;;32.80;22.70;;;6.70;46.20;;;;;;5032034;28;20191;-52
2023/01/26 00:08:11;;;;;;;42.45;23.90;;;6.70;46.20;;;;;;5032303;28;20431;-52
2023/01/26 00:10:38;;;;;;;42.80;22.83;;;6.70;46.30;;;;;;5032070;28;20261;-53
2023/01/26 00:13:05;;;;;;;37.17;21.65;;;6.70;46.30;;;;;;5032482;28;20252;-52
2023/01/26 00:15:35;;;;;;;40.90;23.23;;;6.70;46.30;;;;;;5031834;28;20186;-52
2023/01/26 00:18:02;;;;;;;40.25;24.13;;;6.70;46.40;;;;;;5032042;28;20208;-53
2023/01/26 00:20:29;;;;;;;42.83;25.77;;;6.70;46.40;;;;;;5032407;28;20252;-52
2023/01/26 00:22:55;;;;;;;42.85;24.05;;;6.60;46.30;;;;;;5031941;28;20605;-52
2023/01/26 00:25:21;;;;;;;43.03;24.40;;;6.70;46.40;;;;;;5031821;28;20174;-52
2023/01/26 00:27:47;;;;;;;47.22;25.13;;;6.70;46.50;;;;;;5031763;28;20413;-52
2023/01/26 00:30:13;;;;;;;38.63;24.27;;;6.70;46.50;;;;;;5032016;28;20269;-52
2023/01/26 00:32:39;;;;;;;41.53;26.88;;;6.70;46.50;;;;;;5031995;28;20204;-52
2023/01/26 00:35:05;;;;;;;47.53;25.53;;;6.70;46.40;;;;;;5031745;28;20277;-53
2023/01/26 00:37:31;;;;;;;49.42;27.08;;;6.70;46.30;;;;;;5031715;28;20209;-52
2023/01/26 00:39:57;;;;;;;45.63;25.60;;;6.70;46.20;;;;;;5031781;28;20170;-52
2023/01/26 00:42:23;;;;;;;42.83;24.30;;;6.80;46.10;;;;;;5031907;28;20192;-52
2023/01/26 00:44:50;;;;;;;48.63;24.37;;;6.70;46.20;;;;;;5033735;28;20780;-52
2023/01/26 00:47:16;;;;;;;50.50;27.13;;;6.70;46.20;;;;;;5035469;28;20411;-52
2023/01/26 00:49:43;;;;;;;45.95;24.40;;;6.70;46.20;;;;;;5035492;28;20186;-52
2023/01/26 00:52:09;;;;;;;48.83;27.85;;;6.70;46.20;;;;;;5035355;28;20220;-52
2023/01/26 00:54:35;;;;;;;57.67;27.13;;;6.70;46.30;;;;;;5035204;28;20200;-51
2023/01/26 00:57:01;;;;;;;44.83;27.20;;;6.70;46.30;;;;;;5035512;28;20733;-52
2023/01/26 00:59:26;;;;;;;43.20;25.83;;;6.70;46.40;;;;;;5035332;28;20733;-53
2023/01/26 01:01:53;;;;;;;50.87;27.27;;;6.70;46.50;;;;;;5035543;28;20205;-52
2023/01/26 01:04:19;;;;;;;54.28;27.30;;;6.70;46.40;;;;;;5035070;28;20646;-52
2023/01/26 01:06:45;;;;;;;53.63;24.85;;;6.70;46.40;;;;;;5035173;28;20218;-52
2023/01/26 01:09:11;;;;;;;48.83;27.27;;;6.70;46.20;;;;;;5035225;28;20248;-52
2023/01/26 01:11:37;;;;;;;57.00;30.25;;;6.70;46.20;;;;;;5034956;28;20200;-52
2023/01/26 01:14:03;;;;;;;70.93;33.70;;;6.70;46.20;;;;;;5035249;28;20177;-53
2023/01/26 01:16:29;;;;;;;62.08;29.13;;;6.70;46.30;;;;;;5035112;28;20222;-52
2023/01/26 01:18:55;;;;;;;67.23;29.50;;;6.60;46.20;;;;;;5035209;28;20232;-52
2023/01/26 01:21:23;;;;;;;62.45;29.67;;;6.60;46.40;;;;;;5034908;28;20502;-52
2023/01/26 01:23:48;;;;;;;50.35;26.52;;;6.60;46.50;;;;;;5034867;28;20261;-52
2023/01/26 01:26:14;;;;;;;55.53;26.27;;;6.60;46.40;;;;;;5034910;28;20265;-51
2023/01/26 01:28:40;;;;;;;56.07;24.93;;;6.60;46.60;;;;;;5034761;28;20277;-52
2023/01/26 01:31:09;;;;;;;65.45;31.60;;;6.60;46.50;;;;;;5034719;28;20193;-52
2023/01/26 01:33:34;;;;;;;53.40;24.65;;;6.70;46.60;;;;;;5034719;28;20570;-52
2023/01/26 01:36:06;;;;;;;58.77;27.23;;;6.70;46.60;;;;;;5034653;28;20253;-52
2023/01/26 01:38:33;;;;;;;62.13;27.48;;;6.70;46.50;;;;;;5034548;28;20174;-52
2023/01/26 01:40:58;;;;;;;51.72;24.35;;;6.60;46.40;;;;;;5034419;28;20666;-52
2023/01/26 01:43:25;;;;;;;53.07;25.70;;;6.60;46.40;;;;;;5034526;28;20257;-52
2023/01/26 01:45:52;;;;;;;46.55;26.00;;;6.60;46.40;;;;;;5034263;28;20946;-52
2023/01/26 01:48:43;;;;;;;69.30;25.17;;;6.60;46.40;;;;;;5034487;28;20221;-53
2023/01/26 01:51:18;;;;;;;52.30;26.63;;;6.60;46.30;;;;;;5033743;28;20202;-52
2023/01/26 01:53:47;;;;;;;43.58;24.80;;;6.60;46.50;;;;;;5034636;28;20200;-52
2023/01/26 01:56:22;;;;;;;61.22;25.55;;;6.60;46.60;;;;;;5033011;28;20737;-52
2023/01/26 01:58:52;;;;;;;54.30;28.85;;;6.60;46.60;;;;;;5034161;28;20154;-52
2023/01/26 02:01:18;;;;;;;53.70;27.63;;;6.50;46.70;;;;;;5034066;28;20194;-52
2023/01/26 02:03:46;;;;;;;54.90;25.15;;;6.50;46.70;;;;;;5034409;28;20397;-52
2023/01/26 02:06:22;;;;;;;40.38;22.35;;;6.60;46.70;;;;;;5034109;28;20174;-52
2023/01/26 02:08:51;;;;;;;55.08;26.55;;;6.60;46.70;;;;;;5034207;28;20182;-51
2023/01/26 02:11:38;;;;;;;50.20;25.35;;;6.60;46.60;;;;;;5034217;28;20194;-52
2023/01/26 02:14:07;;;;;;;51.97;27.92;;;6.60;46.50;;;;;;5033790;28;20180;-53
2023/01/26 02:16:33;;;;;;;48.70;26.17;;;6.60;46.60;;;;;;5033650;28;20202;-52
2023/01/26 02:18:59;;;;;;;61.65;25.77;;;6.60;46.70;;;;;;5033960;28;20180;-52
2023/01/26 02:21:25;;;;;;;51.97;24.63;;;6.60;46.70;;;;;;5033590;28;20616;-52
2023/01/26 02:23:54;;;;;;;44.65;24.40;;;6.60;46.50;;;;;;5034071;28;20723;-52
2023/01/26 02:26:22;;;;;;;48.78;23.80;;;6.60;46.60;;;;;;5033489;28;20166;-52
2023/01/26 02:28:48;;;;;;;68.00;28.30;;;6.60;46.60;;;;;;5033845;28;20185;-52
2023/01/26 02:31:15;;;;;;;57.35;25.85;;;6.60;46.70;;;;;;5033715;28;20659;-52
2023/01/26 02:33:42;;;;;;;50.28;23.10;;;6.60;46.70;;;;;;5033715;28;20177;-52
2023/01/26 02:36:17;;;;;;;52.88;23.17;;;6.60;46.70;;;;;;5033543;28;20261;-52
2023/01/26 02:38:49;;;;;;;48.33;23.23;;;6.60;46.80;;;;;;5033607;28;20166;-52
2023/01/26 02:42:37;;;;;;;51.13;23.35;;;6.60;46.70;;;;;;5033338;28;20198;-52
2023/01/26 02:44:04;;;;;;;60.90;25.42;;;6.60;46.70;;;;;;5033203;28;20323;-52
2023/01/26 02:46:29;;;;;;;57.40;26.88;;;6.60;46.70;;;;;;5033258;28;20665;-52
2023/01/26 02:51:39;;;;;;;65.22;27.00;;;6.60;46.80;;;;;;5033402;28;20954;-52
2023/01/26 02:54:05;;;;;;;55.73;23.53;;;6.60;46.70;;;;;;5033443;28;20268;-52
2023/01/26 02:56:31;;;;;;;56.47;27.47;;;6.50;46.80;;;;;;5032887;28;20689;-53
2023/01/26 02:58:56;;;;;;;54.23;24.43;;;6.50;46.80;;;;;;5033078;28;20201;-53
2023/01/26 03:01:22;;;;;;;54.77;23.50;;;6.50;47.00;;;;;;5033006;28;20585;-52
2023/01/26 03:03:48;;;;;;;53.23;25.33;;;6.60;46.90;;;;;;5033246;28;20177;-52
2023/01/26 03:06:14;;;;;;;50.37;24.80;;;6.50;46.80;;;;;;5032776;28;20177;-52
2023/01/26 03:08:40;;;;;;;56.85;24.23;;;6.50;46.90;;;;;;5032801;28;20189;-52
2023/01/26 03:11:07;;;;;;;49.42;24.05;;;6.50;46.90;;;;;;5032722;28;20202;-52
2023/01/26 03:13:33;;;;;;;44.05;20.13;;;6.50;46.90;;;;;;5033371;28;20585;-53
2023/01/26 03:16:05;;;;;;;47.38;21.50;;;6.60;46.80;;;;;;5031450;28;20182;-53
2023/01/26 03:29:30;;;;;;;54.90;23.80;;;6.50;47.20;;;;;;5032595;28;20185;-53
2023/01/26 03:31:58;;;;;;;52.00;21.40;;;6.50;47.20;;;;;;5032543;28;20225;-53
2023/01/26 03:34:24;;;;;;;50.00;24.45;;;6.50;47.20;;;;;;5032417;28;20185;-53
2023/01/26 03:36:50;;;;;;;48.22;20.95;;;6.50;47.30;;;;;;5032440;28;20224;-52
2023/01/26 03:58:40;;;;;;;39.88;20.35;;;6.40;47.30;;;;;;5032521;28;20240;-52
2023/01/26 04:01:09;;;;;;;44.87;22.10;;;6.50;47.40;;;;;;5032245;28;20217;-52
2023/01/26 04:09:04;;;;;;;41.88;20.45;;;6.50;47.40;;;;;;5032100;28;20177;-52
2023/01/26 04:11:29;;;;;;;43.33;20.60;;;6.50;47.40;;;;;;5031886;28;20205;-52
2023/01/26 04:22:07;;;;;;;45.38;22.30;;;6.50;47.40;;;;;;5035890;28;20264;-52
2023/01/26 04:24:33;;;;;;;48.67;22.53;;;6.50;47.40;;;;;;5035804;28;20585;-53
2023/01/26 04:26:59;;;;;;;36.07;19.87;;;6.40;47.30;;;;;;5035964;28;20189;-52
2023/01/26 04:29:24;;;;;;;39.97;20.90;;;6.50;47.40;;;;;;5035862;28;20201;-52
2023/01/26 04:31:50;;;;;;;45.70;19.90;;;6.50;47.40;;;;;;5035774;28;20669;-51
2023/01/26 04:34:16;;;;;;;49.20;20.30;;;6.50;47.50;;;;;;5035716;28;20416;-52
2023/01/26 04:36:42;;;;;;;37.87;18.77;;;6.50;47.40;;;;;;5034460;28;20276;-53
2023/01/26 04:39:08;;;;;;;37.83;18.23;;;6.50;47.30;;;;;;5035679;28;20572;-52
2023/01/26 04:41:34;;;;;;;40.53;20.50;;;6.50;47.20;;;;;;5034362;28;20194;-52
2023/01/26 04:44:00;;;;;;;39.00;19.40;;;6.50;47.20;;;;;;5035502;28;20405;-52
2023/01/26 04:46:26;;;;;;;43.43;19.97;;;6.50;47.30;;;;;;5035638;28;20185;-53
2023/01/26 04:48:51;;;;;;;34.70;17.23;;;6.50;47.30;;;;;;5035495;28;20765;-52
2023/01/26 04:51:19;;;;;;;35.55;16.45;;;6.50;47.40;;;;;;5035569;28;20206;-52
2023/01/26 04:53:46;;;;;;;32.45;18.15;;;6.50;48.10;;;;;;5035501;28;20182;-52
2023/01/26 04:56:32;;;;;;;34.95;19.52;;;6.50;47.40;;;;;;5035124;28;20189;-52
2023/01/26 04:59:04;;;;;;;39.45;19.10;;;6.50;47.40;;;;;;5035355;28;20577;-52
2023/01/26 05:01:30;;;;;;;33.78;18.85;;;6.50;47.50;;;;;;5035248;28;20594;-53
2023/01/26 05:04:02;;;;;;;37.22;19.15;;;6.50;47.40;;;;;;5035226;28;20177;-53
2023/01/26 05:06:28;;;;;;;36.35;18.27;;;6.50;47.40;;;;;;5035014;28;20529;-52
2023/01/26 05:08:53;;;;;;;34.20;18.70;;;6.50;47.40;;;;;;5035096;28;20174;-53
2023/01/26 05:11:19;;;;;;;35.80;18.80;;;6.50;47.40;;;;;;5034995;28;21078;-52
2023/01/26 05:13:46;;;;;;;37.40;16.57;;;6.50;47.40;;;;;;5035065;28;20495;-52
2023/01/26 05:16:13;;;;;;;31.15;17.80;;;6.50;47.50;;;;;;5034871;28;20185;-52
2023/01/26 05:18:40;;;;;;;42.75;18.85;;;6.50;47.40;;;;;;5035055;28;20273;-52
2023/01/26 05:21:06;;;;;;;32.97;17.67;;;6.50;47.30;;;;;;5034674;28;20709;-52
2023/01/26 05:23:32;;;;;;;40.95;21.48;;;6.50;47.40;;;;;;5034750;28;20182;-52
2023/01/26 05:25:57;;;;;;;44.20;21.07;;;6.50;47.40;;;;;;5034951;28;20216;-52
2023/01/26 05:28:23;;;;;;;63.77;25.13;;;6.50;47.30;;;;;;5035038;28;20190;-53
2023/01/26 05:30:49;;;;;;;44.63;19.80;;;6.50;47.20;;;;;;5033494;28;20177;-53
2023/01/26 05:33:15;;;;;;;49.33;24.23;;;6.50;47.20;;;;;;5034938;28;20447;-53
2023/01/26 05:35:41;;;;;;;45.55;22.33;;;6.50;47.30;;;;;;5034634;28;20262;-53
2023/01/26 05:38:07;;;;;;;44.83;22.25;;;6.40;47.20;;;;;;5034678;28;20213;-52
2023/01/26 05:40:33;;;;;;;40.40;18.10;;;6.40;47.20;;;;;;5035026;28;20174;-53
2023/01/26 05:42:59;;;;;;;47.30;20.70;;;6.40;47.10;;;;;;5034475;28;20416;-52
2023/01/26 05:45:25;;;;;;;38.17;18.73;;;6.40;47.20;;;;;;5034132;28;20189;-53
2023/01/26 05:47:51;;;;;;;37.50;18.20;;;6.40;47.30;;;;;;5034586;28;20174;-53
2023/01/26 05:50:16;;;;;;;46.40;21.00;;;6.40;47.20;;;;;;5034434;28;20174;-52
2023/01/26 05:52:45;;;;;;;49.67;21.23;;;6.40;47.20;;;;;;5034173;28;20752;-53
2023/01/26 05:55:12;;;;;;;43.92;23.55;;;6.40;47.30;;;;;;5033960;28;20565;-52
2023/01/26 05:57:38;;;;;;;35.95;21.70;;;6.40;47.30;;;;;;5034149;28;20201;-53
2023/01/26 06:00:05;;;;;;;43.10;21.03;;;6.40;47.40;;;;;;5034152;28;20170;-53
2023/01/26 06:02:30;;;;;;;48.20;21.60;;;6.40;47.40;;;;;;5034183;28;20588;-53
2023/01/26 06:04:56;;;;;;;43.17;22.10;;;6.40;47.40;;;;;;5033841;28;20239;-53
2023/01/26 06:07:22;;;;;;;42.23;23.03;;;6.40;47.40;;;;;;5033920;28;20209;-52
2023/01/26 06:09:47;;;;;;;49.53;19.40;;;6.40;47.40;;;;;;5034001;28;20269;-53
2023/01/26 06:12:15;;;;;;;48.17;19.87;;;6.40;47.30;;;;;;5034100;28;20205;-53
2023/01/26 06:14:41;;;;;;;36.58;20.40;;;6.40;47.20;;;;;;5033708;28;20676;-53
2023/01/26 06:17:07;;;;;;;35.63;18.83;;;6.40;47.20;;;;;;5033890;28;20229;-53
2023/01/26 06:19:33;;;;;;;46.67;23.07;;;6.40;47.30;;;;;;5033903;28;20619;-52
2023/01/26 06:21:58;;;;;;;45.27;20.30;;;6.40;47.20;;;;;;5033472;28;21136;-53
2023/01/26 06:24:24;;;;;;;57.00;21.20;;;6.40;47.30;;;;;;5033550;28;20679;-53
2023/01/26 06:26:50;;;;;;;47.03;21.03;;;6.40;47.30;;;;;;5033878;28;20256;-53
2023/01/26 06:29:15;;;;;;;64.70;23.37;;;6.40;47.20;;;;;;5033778;28;20197;-53
2023/01/26 06:31:41;;;;;;;51.47;21.77;;;6.40;47.20;;;;;;5033500;28;20218;-53
2023/01/26 06:34:07;;;;;;;40.40;22.00;;;6.40;47.20;;;;;;5033549;28;20186;-53
2023/01/26 06:36:33;;;;;;;51.95;23.75;;;6.40;47.20;;;;;;5033096;28;20212;-53
2023/01/26 06:38:59;;;;;;;52.77;23.47;;;6.40;47.20;;;;;;5033484;28;20178;-53
2023/01/26 06:41:25;;;;;;;44.27;20.10;;;6.40;47.20;;;;;;5033230;28;20433;-53
2023/01/26 06:43:51;;;;;;;46.38;20.48;;;6.40;47.30;;;;;;5033193;28;20769;-53
2023/01/26 06:46:18;;;;;;;43.05;20.40;;;6.40;47.40;;;;;;5033023;28;20178;-53
2023/01/26 06:48:44;;;;;;;42.85;21.02;;;6.40;47.40;;;;;;5033224;28;20249;-53
2023/01/26 06:51:19;;;;;;;39.00;20.50;;;6.40;47.30;;;;;;5033012;28;20280;-53
2023/01/26 06:53:55;;;;;;;42.92;21.67;;;6.40;47.30;;;;;;5033345;28;20173;-53
2023/01/26 06:56:22;;;;;;;46.88;20.80;;;6.30;47.30;;;;;;5032990;28;20248;-51
2023/01/26 06:58:48;;;;;;;41.50;21.52;;;6.30;47.40;;;;;;5033134;28;20569;-53
2023/01/26 07:01:24;;;;;;;47.97;22.00;;;6.30;47.40;;;;;;5032943;28;20194;-53
2023/01/26 07:03:52;;;;;;;39.95;18.98;;;6.30;47.40;;;;;;5032957;28;20170;-53
2023/01/26 07:06:18;;;;;;;41.33;20.40;;;6.40;47.50;;;;;;5032855;28;20184;-53
2023/01/26 07:08:44;;;;;;;39.33;23.00;;;6.40;47.30;;;;;;5032872;28;20166;-52
2023/01/26 07:11:11;;;;;;;38.97;19.77;;;6.40;47.30;;;;;;5032851;28;20197;-53
2023/01/26 07:13:37;;;;;;;43.38;23.58;;;6.30;47.20;;;;;;5032795;28;20425;-52
2023/01/26 07:16:09;;;;;;;45.72;21.90;;;6.40;47.10;;;;;;5032345;28;20185;-53
2023/01/26 07:18:36;;;;;;;38.47;21.33;;;6.30;47.20;;;;;;5032591;28;20280;-53
2023/01/26 07:21:07;;;;;;;37.08;20.40;;;6.30;47.20;;;;;;5032395;28;20228;-53
2023/01/26 07:23:33;;;;;;;34.83;21.10;;;6.40;47.30;;;;;;5032649;28;20220;-53
2023/01/26 07:25:58;;;;;;;42.13;20.57;;;6.30;47.20;;;;;;5032285;28;20202;-53
2023/01/26 07:28:25;;;;;;;37.30;20.97;;;6.30;47.20;;;;;;5032555;28;20442;-52
2023/01/26 07:30:56;;;;;;;41.97;20.67;;;6.30;47.20;;;;;;5032630;28;20181;-53
2023/01/26 07:33:22;;;;;;;36.15;21.00;;;6.30;47.10;;;;;;5032639;28;20178;-52
2023/01/26 07:35:47;;;;;;;39.60;21.67;;;6.30;47.20;;;;;;5032304;28;20538;-53
2023/01/26 07:38:13;;;;;;;39.03;24.20;;;6.30;47.30;;;;;;5032443;28;20353;-52
2023/01/26 07:40:39;;;;;;;35.87;19.50;;;6.30;47.30;;;;;;5032389;28;20174;-52
2023/01/26 07:43:05;;;;;;;41.63;20.50;;;6.30;47.30;;;;;;5032316;28;20228;-53
2023/01/26 07:45:31;;;;;;;45.23;23.23;;;6.30;47.30;;;;;;5032273;28;20276;-53
2023/01/26 07:47:56;;;;;;;42.55;21.17;;;6.30;47.30;;;;;;5032177;28;20190;-53
2023/01/26 07:50:24;;;;;;;40.80;24.80;;;6.40;47.30;;;;;;5032196;28;20185;-52
2023/01/26 07:52:51;;;;;;;43.40;21.58;;;6.40;47.20;;;;;;5032141;28;20464;-52
2023/01/26 07:55:20;;;;;;;40.53;21.80;;;6.40;47.30;;;;;;5031369;28;20182;-53
2023/01/26 07:57:49;;;;;;;39.22;23.88;;;6.40;47.30;;;;;;5032006;28;20197;-52
2023/01/26 08:00:16;;;;;;;40.03;21.13;;;6.40;47.20;;;;;;5032137;28;20170;-52
2023/01/26 08:02:42;;;;;;;38.90;23.17;;;6.40;47.20;;;;;;5032286;28;20532;-52
2023/01/26 08:05:08;;;;;;;36.40;20.67;;;6.50;47.10;;;;;;5031815;28;20205;-52
2023/01/26 08:07:34;;;;;;;45.35;24.02;;;6.40;47.00;;;;;;5032054;28;20185;-53
2023/01/26 08:10:00;;;;;;;44.03;23.43;;;6.40;47.00;;;;;;5032027;28;20181;-53
2023/01/26 08:12:26;;;;;;;45.83;23.70;;;6.40;47.00;;;;;;5031865;28;20582;-53
2023/01/26 08:14:51;;;;;;;37.53;21.90;;;6.40;47.00;;;;;;5031894;28;20401;-53
2023/01/26 08:17:18;;;;;;;42.67;23.40;;;6.40;47.10;;;;;;5031883;28;20456;-53
2023/01/26 08:19:45;;;;;;;39.33;19.35;;;6.50;47.00;;;;;;5032028;28;20173;-53
2023/01/26 08:22:11;;;;;;;41.90;22.17;;;6.50;47.10;;;;;;5031842;28;20352;-52
2023/01/26 08:24:37;;;;;;;52.60;25.03;;;6.50;47.10;;;;;;5031714;28;20659;-53
2023/01/26 08:27:03;;;;;;;41.30;23.73;;;6.50;47.10;;;;;;5031784;28;20182;-52
2023/01/26 08:29:28;;;;;;;38.05;21.23;;;6.50;47.00;;;;;;5031813;28;20769;-52
2023/01/26 08:31:54;;;;;;;43.40;20.60;;;6.50;47.00;;;;;;5031901;28;20222;-52
2023/01/26 08:34:21;;;;;;;41.07;22.90;;;6.50;47.00;;;;;;5031707;28;20546;-52
2023/01/26 08:36:48;;;;;;;48.13;24.05;;;6.50;47.10;;;;;;5031686;28;20210;-52
2023/01/26 08:39:13;;;;;;;48.88;26.55;;;6.50;47.20;;;;;;5031747;28;20265;-52
2023/01/26 08:41:39;;;;;;;39.40;24.40;;;6.50;47.20;;;;;;5031573;28;20198;-52
2023/01/26 08:44:06;;;;;;;42.97;22.33;;;6.60;47.20;;;;;;5031671;28;20612;-52
2023/01/26 08:46:32;;;;;;;49.67;24.70;;;6.60;47.10;;;;;;5031853;28;20228;-52
2023/01/26 08:48:58;;;;;;;41.47;22.10;;;6.60;46.90;;;;;;5030352;28;20266;-52
2023/01/26 08:51:23;;;;;;;48.93;25.93;;;6.50;46.80;;;;;;5031326;28;20627;-53
2023/01/26 08:53:49;;;;;;;45.80;24.43;;;6.50;47.00;;;;;;5031866;28;20221;-52
2023/01/26 08:56:15;;;;;;;38.17;21.83;;;6.50;47.10;;;;;;5031610;28;20178;-53
2023/01/26 08:58:41;;;;;;;43.60;22.33;;;6.50;47.20;;;;;;5031744;28;20178;-52
2023/01/26 09:01:12;;;;;;;41.57;22.87;;;6.50;47.10;;;;;;5031594;28;20197;-52
2023/01/26 09:03:38;;;;;;;43.92;25.80;;;6.50;47.10;;;;;;5031480;28;20981;-52
2023/01/26 09:06:04;;;;;;;45.17;24.67;;;6.50;47.10;;;;;;5033709;28;20201;-52
2023/01/26 09:08:31;;;;;;;39.88;21.15;;;6.50;47.10;;;;;;5035119;28;20177;-51
2023/01/26 09:10:56;;;;;;;43.30;21.88;;;6.50;47.00;;;;;;5035342;28;20189;-52
2023/01/26 09:13:23;;;;;;;42.43;23.43;;;6.40;47.00;;;;;;5035397;28;20177;-52
2023/01/26 09:15:49;;;;;;;35.95;20.25;;;6.40;47.00;;;;;;5035065;28;20500;-52
2023/01/26 09:18:14;;;;;;;38.22;22.20;;;6.40;47.10;;;;;;5035151;28;20269;-52
2023/01/26 09:20:40;;;;;;;38.63;21.77;;;6.40;47.00;;;;;;5034708;28;20649;-52
2023/01/26 09:23:06;;;;;;;38.55;22.10;;;6.40;46.90;;;;;;5034884;28;20174;-52
2023/01/26 09:25:36;;;;;;;47.40;21.70;;;6.30;46.90;;;;;;5034672;28;20178;-51
2023/01/26 09:28:02;;;;;;;44.13;20.60;;;6.30;47.00;;;;;;5034800;28;20178;-52
2023/01/26 09:30:28;;;;;;;36.05;19.88;;;6.30;47.00;;;;;;5034794;28;20186;-52
2023/01/26 09:32:58;;;;;;;40.23;20.47;;;6.30;46.70;;;;;;5034938;28;20201;-52
2023/01/26 09:35:25;;;;;;;34.50;18.40;;;6.20;46.80;;;;;;5034476;28;20186;-53
2023/01/26 09:37:50;;;;;;;43.13;19.85;;;6.20;47.10;;;;;;5034812;28;20208;-52
2023/01/26 09:40:32;;;;;;;34.90;19.60;;;6.20;47.00;;;;;;5034899;28;20264;-53
2023/01/26 09:42:57;;;;;;;38.38;18.40;;;6.20;47.10;;;;;;5034747;28;20194;-53
2023/01/26 09:45:29;;;;;;;45.00;19.33;;;6.20;47.20;;;;;;5034438;28;20174;-52
2023/01/26 09:48:42;;;;;;;39.47;21.65;;;6.20;47.20;;;;;;5034381;28;20201;-54
2023/01/26 09:51:18;;;;;;;39.17;19.73;;;6.20;47.20;;;;;;5032045;28;20607;-53
2023/01/26 09:53:56;;;;;;;36.20;20.60;;;6.20;47.10;;;;;;5032087;28;20197;-53
2023/01/26 09:56:27;;;;;;;35.55;19.80;;;6.30;47.20;;;;;;5031663;28;20553;-53
2023/01/26 09:59:03;;;;;;;35.13;19.48;;;6.30;47.10;;;;;;5032015;28;20173;-52
2023/01/26 10:01:33;;;;;;;31.42;17.50;;;6.30;47.00;;;;;;5031887;28;20698;-52
2023/01/26 10:04:28;;;;;;;46.05;21.30;;;6.20;47.00;;;;;;5031729;28;20174;-52
2023/01/26 10:06:56;;;;;;;34.90;16.90;;;6.30;47.20;;;;;;5028322;28;20190;-53
2023/01/26 10:09:25;;;;;;;33.33;20.38;;;6.30;47.30;;;;;;5015382;28;20174;-52
2023/01/26 10:11:57;;;;;;;41.78;21.20;;;6.30;47.10;;;;;;5031589;28;20198;-52
2023/01/26 10:14:41;;;;;;;36.90;19.67;;;6.30;47.20;;;;;;5031389;28;20180;-53
2023/01/26 10:17:16;;;;;;;36.72;17.45;;;6.30;47.20;;;;;;5030685;28;20186;-53
2023/01/26 10:19:48;;;;;;;37.40;18.30;;;6.30;47.10;;;;;;5031643;28;20248;-52
2023/01/26 10:22:39;;;;;;;35.17;18.83;;;6.30;47.10;;;;;;5032785;28;20222;-53
2023/01/26 10:25:17;;;;;;;30.65;19.02;;;6.30;47.10;;;;;;5033589;28;20225;-52
2023/01/26 10:27:44;;;;;;;33.20;18.52;;;6.30;47.00;;;;;;5033967;28;20189;-53
2023/01/26 10:30:19;;;;;;;38.45;19.45;;;6.30;47.10;;;;;;5033658;28;20178;-52
2023/01/26 10:32:49;;;;;;;39.45;21.27;;;6.30;47.10;;;;;;5033806;28;20197;-52
2023/01/26 10:35:23;;;;;;;35.80;19.52;;;6.30;47.10;;;;;;5033575;28;20204;-52
2023/01/26 10:37:51;;;;;;;36.95;20.10;;;6.40;47.10;;;;;;5033605;28;20251;-52
2023/01/26 10:40:17;;;;;;;32.95;18.23;;;6.40;47.00;;;;;;5033380;28;20589;-52
2023/01/26 10:42:56;;;;;;;33.05;17.85;;;6.40;47.00;;;;;;5033424;28;20205;-53
2023/01/26 10:45:24;;;;;;;31.17;17.83;;;6.40;47.00;;;;;;5033266;28;20189;-53
2023/01/26 10:48:12;;;;;;;34.03;19.17;;;6.40;46.80;;;;;;5033504;28;20170;-52
2023/01/26 10:50:38;;;;;;;29.13;16.98;;;6.40;47.00;;;;;;5033086;28;20264;-53
2023/01/26 10:53:04;;;;;;;36.87;20.23;;;6.40;47.10;;;;;;5033563;28;20595;-52
2023/01/26 10:55:36;;;;;;;38.67;18.60;;;6.40;47.10;;;;;;5033169;28;20182;-53
2023/01/26 10:58:01;;;;;;;41.88;18.42;;;6.30;47.00;;;;;;5033115;28;20558;-52
2023/01/26 11:00:30;;;;;;;34.80;17.37;;;6.30;47.10;;;;;;5033327;28;20176;-52
2023/01/26 11:03:11;;;;;;;45.33;20.23;;;6.40;47.10;;;;;;5032972;28;20696;-52
2023/01/26 11:05:36;;;;;;;32.67;18.38;;;6.40;47.00;;;;;;5032972;28;20177;-52
2023/01/26 11:08:05;;;;;;;45.97;18.80;;;6.30;46.90;;;;;;5031780;28;20166;-52
2023/01/26 11:10:35;;;;;;;38.22;20.58;;;6.30;47.00;;;;;;5033019;28;20178;-52
2023/01/26 11:13:17;;;;;;;33.95;20.17;;;6.30;47.10;;;;;;5032742;28;20252;-53
2023/01/26 11:16:10;;;;;;;39.40;22.02;;;6.30;47.00;;;;;;5032487;28;20158;-56
2023/01/26 11:18:53;;;;;;;42.28;19.17;;;6.30;47.00;;;;;;5032435;28;20328;-52
2023/01/26 11:21:26;;;;;;;40.70;18.90;;;6.30;47.10;;;;;;5032674;28;20681;-52
2023/01/26 11:24:13;;;;;;;40.35;20.30;;;6.30;47.30;;;;;;5032686;28;20229;-53
2023/01/26 11:26:53;;;;;;;35.97;17.90;;;6.30;47.20;;;;;;5032522;28;20166;-53
2023/01/26 11:29:41;;;;;;;32.13;16.08;;;6.30;47.30;;;;;;5032559;28;20166;-53
2023/01/26 11:32:12;;;;;;;29.13;17.85;;;6.30;47.20;;;;;;5032428;28;20838;-52
2023/01/26 11:34:53;;;;;;;34.35;17.67;;;6.40;47.10;;;;;;5032567;28;20185;-52
2023/01/26 11:37:40;;;;;;;31.10;17.08;;;6.40;46.90;;;;;;5032681;28;20280;-53
2023/01/26 11:40:38;;;;;;;30.45;17.02;;;6.40;46.80;;;;;;5032334;28;20170;-53
2023/01/26 11:43:17;;;;;;;34.25;18.70;;;6.30;46.70;;;;;;5032621;28;20180;-53
2023/01/26 11:45:57;;;;;;;34.28;18.05;;;6.30;47.00;;;;;;5032345;28;20173;-53
2023/01/26 11:48:25;;;;;;;37.75;19.00;;;6.30;47.00;;;;;;5032610;28;20173;-53
2023/01/26 11:51:14;;;;;;;41.75;20.58;;;6.30;47.00;;;;;;5032138;28;20699;-53
2023/01/26 11:54:01;;;;;;;31.92;16.42;;;6.30;46.80;;;;;;5032211;28;20618;-53
2023/01/26 11:56:39;;;;;;;35.67;18.70;;;6.30;46.90;;;;;;5031921;28;20265;-53
2023/01/26 11:59:13;;;;;;;34.92;17.95;;;6.30;46.90;;;;;;5032247;28;20664;-53
2023/01/26 12:01:57;;;;;;;37.65;18.38;;;6.30;47.00;;;;;;5032063;28;20197;-53
2023/01/26 12:04:22;;;;;;;41.25;20.10;;;6.30;46.70;;;;;;5032212;28;20154;-53
2023/01/26 12:06:57;;;;;;;31.03;18.30;;;6.30;46.90;;;;;;5032096;28;20177;-53
2023/01/26 12:09:37;;;;;;;38.15;17.27;;;6.20;46.70;;;;;;5032097;28;20638;-52
2023/01/26 12:12:36;;;;;;;32.28;16.45;;;6.20;46.50;;;;;;5031826;28;20273;-53
2023/01/26 12:15:28;;;;;;;34.58;18.52;;;6.20;46.40;;;;;;5031199;28;20182;-53
2023/01/26 12:18:28;;;;;;;30.50;17.85;;;6.10;46.30;;;;;;5031972;28;20559;-53
2023/01/26 12:21:03;;;;;;;28.90;17.35;;;6.00;46.50;;;;;;5031957;28;20162;-53
2023/01/26 12:23:50;;;;;;;29.02;15.95;;;6.00;46.70;;;;;;5032063;28;20188;-53
2023/01/26 12:26:22;;;;;;;28.42;17.38;;;5.90;46.80;;;;;;5031715;28;20150;-53
2023/01/26 12:29:12;;;;;;;30.00;17.25;;;5.90;46.90;;;;;;5031705;28;20562;-53
2023/01/26 12:31:54;;;;;;;28.60;16.40;;;5.90;46.80;;;;;;5031841;28;20239;-53
2023/01/26 12:34:29;;;;;;;35.92;17.17;;;5.90;47.00;;;;;;5031735;28;20173;-53
2023/01/26 12:37:03;;;;;;;30.67;15.18;;;5.90;46.80;;;;;;5031602;28;20244;-53
2023/01/26 12:39:47;;;;;;;32.15;16.08;;;6.00;46.90;;;;;;5032068;28;20159;-53
2023/01/26 12:42:27;;;;;;;30.25;15.48;;;6.00;46.30;;;;;;5035610;28;20612;-53
2023/01/26 12:45:00;;;;;;;32.45;19.00;;;6.00;46.60;;;;;;5035687;28;20204;-53
2023/01/26 12:47:31;;;;;;;27.15;14.82;;;6.00;46.50;;;;;;5035573;28;20190;-53
2023/01/26 12:50:09;;;;;;;26.00;15.52;;;6.00;46.60;;;;;;5035718;28;20177;-54
2023/01/26 12:52:45;;;;;;;24.45;14.55;;;6.00;46.30;;;;;;5035721;28;20201;-53
2023/01/26 12:55:31;;;;;;;26.77;16.60;;;6.00;46.10;;;;;;5035350;28;20176;-53
2023/01/26 12:58:04;;;;;;;25.95;14.25;;;6.10;46.20;;;;;;5035566;28;20209;-53
2023/01/26 13:00:36;;;;;;;31.17;16.10;;;6.00;46.20;;;;;;5035406;28;20162;-53
2023/01/26 13:03:29;;;;;;;24.98;12.27;;;6.00;46.30;;;;;;5035199;28;20276;-54
2023/01/26 13:06:17;;;;;;;24.30;14.10;;;6.10;46.30;;;;;;5035316;28;20237;-53
2023/01/26 13:09:18;;;;;;;26.85;14.45;;;6.10;46.30;;;;;;5035461;28;20240;-53
2023/01/26 13:11:45;;;;;;;25.50;14.07;;;6.00;46.20;;;;;;5034966;28;20570;-53
2023/01/26 13:14:41;;;;;;;27.95;14.80;;;6.00;46.20;;;;;;5034935;28;20202;-53
2023/01/26 13:17:17;;;;;;;21.00;12.82;;;6.00;46.20;;;;;;5035184;28;20197;-53
2023/01/26 13:19:43;;;;;;;27.42;12.93;;;6.00;46.20;;;;;;5035108;28;20174;-53
2023/01/26 13:22:18;;;;;;;23.87;13.90;;;6.00;46.00;;;;;;5034776;28;20566;-53
2023/01/26 13:24:49;;;;;;;23.88;13.88;;;6.00;46.10;;;;;;5034597;28;20170;-53
2023/01/26 13:27:39;;;;;;;23.20;13.70;;;6.00;46.00;;;;;;5034793;28;20186;-53
2023/01/26 13:30:23;;;;;;;23.80;13.98;;;5.90;45.30;;;;;;5034837;28;20178;-53
2023/01/26 13:32:49;;;;;;;18.67;11.68;;;5.80;45.90;;;;;;5034610;28;20741;-53
2023/01/26 13:35:23;;;;;;;20.63;13.30;;;5.80;46.00;;;;;;5034465;28;20459;-53
2023/01/26 13:38:01;;;;;;;22.30;13.82;;;5.80;46.20;;;;;;5034564;28;20296;-52